Time;durP1;ratioP1;P1;durP2;ratioP2;P2;SDS_P1;SDS_P2;PMS_P1;PMS_P2;Temp;Humidity;BMP_temperature;BMP_pressure;BME280_temperature;BME280_humidity;BME280_pressure;Samples;Min_cycle;Max_cycle;Signal;HPM_P1;HPM_P2
2023/09/13 00:01:23;;;;;;;21.70;14.10;;;19.60;99.90;;;;;;5074432;28;20507;-76
2023/09/13 00:03:49;;;;;;;25.00;15.52;;;19.60;99.90;;;;;;5080150;28;20024;-75
2023/09/13 00:06:15;;;;;;;23.75;14.50;;;19.60;99.90;;;;;;5086136;28;20062;-75
2023/09/13 00:08:40;;;;;;;21.42;15.40;;;19.60;99.90;;;;;;5074857;28;20027;-75
2023/09/13 00:11:06;;;;;;;31.55;16.20;;;19.70;99.90;;;;;;5078244;28;20383;-76
2023/09/13 00:13:33;;;;;;;29.15;15.27;;;19.70;99.90;;;;;;5073915;28;20147;-77
2023/09/13 00:15:58;;;;;;;22.00;14.93;;;19.70;99.90;;;;;;5073706;28;20471;-76
2023/09/13 00:18:24;;;;;;;30.75;15.23;;;19.70;99.90;;;;;;5076155;28;20030;-76
2023/09/13 00:20:53;;;;;;;24.33;15.50;;;19.70;99.90;;;;;;5078063;28;20029;-76
2023/09/13 00:23:19;;;;;;;29.33;15.93;;;19.70;99.90;;;;;;5083545;28;20023;-76
2023/09/13 00:25:45;;;;;;;25.10;14.95;;;19.70;99.90;;;;;;5083606;28;20028;-76
2023/09/13 00:28:10;;;;;;;24.45;15.80;;;19.70;99.90;;;;;;5071684;28;20020;-75
2023/09/13 00:30:36;;;;;;;24.02;15.52;;;19.70;99.90;;;;;;5092279;28;20479;-75
2023/09/13 00:33:02;;;;;;;27.38;15.73;;;19.70;99.90;;;;;;5090700;28;20077;-76
2023/09/13 00:35:28;;;;;;;26.42;15.98;;;19.80;99.90;;;;;;5083666;28;20063;-76
2023/09/13 00:37:54;;;;;;;29.08;15.57;;;19.70;99.90;;;;;;5078801;28;20059;-76
2023/09/13 00:40:20;;;;;;;24.85;15.57;;;19.80;99.90;;;;;;5090125;28;20020;-75
2023/09/13 00:42:45;;;;;;;25.27;15.27;;;19.80;99.90;;;;;;5081259;28;20016;-75
2023/09/13 00:45:11;;;;;;;21.95;15.32;;;19.70;99.90;;;;;;5086214;28;20036;-75
2023/09/13 00:47:38;;;;;;;23.38;15.70;;;19.70;99.90;;;;;;5091314;28;20024;-76
2023/09/13 00:50:08;;;;;;;22.95;16.63;;;19.70;99.90;;;;;;5084264;28;20365;-75
2023/09/13 00:52:34;;;;;;;22.27;15.80;;;19.70;99.90;;;;;;5093216;28;20024;-76
2023/09/13 00:55:00;;;;;;;24.75;16.05;;;19.60;99.90;;;;;;5091265;28;20394;-76
2023/09/13 00:57:26;;;;;;;24.60;15.52;;;19.60;99.90;;;;;;5083118;28;20471;-76
2023/09/13 00:59:52;;;;;;;23.38;16.20;;;19.60;99.90;;;;;;5079402;28;20106;-76
2023/09/13 01:02:17;;;;;;;25.35;17.15;;;19.60;99.90;;;;;;5082301;28;20048;-76
2023/09/13 01:04:43;;;;;;;26.65;15.10;;;19.50;99.90;;;;;;5093216;28;20077;-76
2023/09/13 01:07:10;;;;;;;27.40;16.08;;;19.50;99.90;;;;;;5089116;28;20528;-75
2023/09/13 01:09:36;;;;;;;25.10;15.65;;;19.50;99.90;;;;;;5086460;28;20042;-76
2023/09/13 01:12:01;;;;;;;26.73;16.35;;;19.50;99.90;;;;;;5090073;28;20020;-75
2023/09/13 01:14:27;;;;;;;25.10;16.45;;;19.50;99.90;;;;;;5085546;28;20031;-76
2023/09/13 01:17:34;;;;;;;27.88;16.13;;;19.50;99.90;;;;;;5083741;28;20442;-75
2023/09/13 01:20:12;;;;;;;25.15;15.82;;;19.50;99.90;;;;;;5089125;28;20149;-75
2023/09/13 01:22:53;;;;;;;25.60;15.25;;;19.50;99.90;;;;;;5093148;28;20035;-76
2023/09/13 01:25:45;;;;;;;23.05;15.00;;;19.50;99.90;;;;;;5091662;28;20016;-76
2023/09/13 01:28:39;;;;;;;27.55;16.10;;;19.40;99.90;;;;;;5082738;28;20523;-76
2023/09/13 01:31:08;;;;;;;25.88;15.10;;;19.40;99.90;;;;;;5093087;28;20020;-76
2023/09/13 01:33:34;;;;;;;24.67;16.30;;;19.40;99.90;;;;;;5081811;28;20028;-76
2023/09/13 01:35:59;;;;;;;28.50;16.05;;;19.40;99.90;;;;;;5078340;28;20066;-76
2023/09/13 01:38:26;;;;;;;26.58;16.02;;;19.40;99.90;;;;;;5080326;28;20020;-76
2023/09/13 01:40:55;;;;;;;24.10;15.63;;;19.40;99.90;;;;;;5085711;28;20047;-76
2023/09/13 01:43:22;;;;;;;26.75;16.48;;;19.40;99.90;;;;;;5085389;28;20024;-76
2023/09/13 01:45:48;;;;;;;24.45;15.50;;;19.40;99.90;;;;;;5086235;28;20619;-76
2023/09/13 01:48:16;;;;;;;26.50;16.50;;;19.40;99.90;;;;;;5086654;28;20015;-76
2023/09/13 01:50:42;;;;;;;27.70;15.43;;;19.40;99.90;;;;;;5080640;28;20482;-75
2023/09/13 01:53:08;;;;;;;23.00;15.65;;;19.40;99.90;;;;;;5085191;28;20038;-76
2023/09/13 01:55:35;;;;;;;23.70;15.32;;;19.30;99.90;;;;;;5092674;28;20016;-76
2023/09/13 01:58:01;;;;;;;25.52;15.30;;;19.30;99.90;;;;;;5090745;28;20409;-76
2023/09/13 02:00:26;;;;;;;26.52;16.00;;;19.30;99.90;;;;;;5092452;28;20020;-76
2023/09/13 02:02:52;;;;;;;29.50;15.70;;;19.30;99.90;;;;;;5079120;28;20039;-76
2023/09/13 02:05:18;;;;;;;29.48;16.45;;;19.20;99.90;;;;;;5080045;28;20016;-76
2023/09/13 02:07:43;;;;;;;26.55;15.32;;;19.20;99.90;;;;;;5081557;28;20509;-76
2023/09/13 02:10:09;;;;;;;28.80;16.95;;;19.20;99.90;;;;;;5091212;28;20023;-76
2023/09/13 02:12:35;;;;;;;26.50;15.98;;;19.10;99.90;;;;;;5086936;28;20051;-76
2023/09/13 02:15:00;;;;;;;30.58;19.13;;;19.10;99.90;;;;;;5091825;28;20024;-76
2023/09/13 02:17:26;;;;;;;30.23;18.52;;;19.20;99.90;;;;;;5081872;28;20023;-76
2023/09/13 02:19:52;;;;;;;31.20;20.25;;;19.10;99.90;;;;;;5087680;28;20020;-75
2023/09/13 02:22:18;;;;;;;31.90;20.63;;;19.10;99.90;;;;;;5092003;28;20047;-75
2023/09/13 02:24:43;;;;;;;37.00;21.95;;;19.10;99.90;;;;;;5091684;28;20060;-75
2023/09/13 02:27:09;;;;;;;39.70;22.48;;;19.10;99.90;;;;;;5081004;28;20022;-75
2023/09/13 02:29:34;;;;;;;35.80;22.20;;;19.10;99.90;;;;;;5091924;28;20042;-75
2023/09/13 02:32:00;;;;;;;37.05;23.02;;;19.10;99.90;;;;;;5090455;28;20016;-75
2023/09/13 02:34:26;;;;;;;39.78;23.30;;;19.00;99.90;;;;;;5077827;28;20379;-76
2023/09/13 02:36:51;;;;;;;39.42;23.65;;;19.00;99.90;;;;;;5091880;28;20411;-75
2023/09/13 02:39:39;;;;;;;37.80;24.30;;;19.00;99.90;;;;;;5090657;28;20084;-75
2023/09/13 02:42:06;;;;;;;38.95;25.25;;;19.00;99.90;;;;;;5091329;28;20058;-76
2023/09/13 02:44:33;;;;;;;44.83;26.75;;;19.10;99.90;;;;;;5091610;28;20028;-76
2023/09/13 02:46:59;;;;;;;42.83;27.77;;;19.00;99.90;;;;;;5088262;28;20127;-76
2023/09/13 02:49:25;;;;;;;44.47;26.52;;;19.00;99.90;;;;;;5073118;28;20483;-75
2023/09/13 02:51:52;;;;;;;44.50;27.75;;;19.00;99.90;;;;;;5080886;28;20046;-76
2023/09/13 02:54:18;;;;;;;46.70;28.65;;;19.00;99.90;;;;;;5089541;28;20050;-76
2023/09/13 02:56:55;;;;;;;48.65;29.10;;;19.00;99.90;;;;;;5080266;28;20028;-76
2023/09/13 02:59:20;;;;;;;48.58;30.30;;;19.00;99.90;;;;;;5076209;28;20093;-75
2023/09/13 03:01:47;;;;;;;45.80;29.15;;;18.90;99.90;;;;;;5087469;28;20095;-76
2023/09/13 03:04:12;;;;;;;47.50;29.38;;;19.00;99.90;;;;;;5090864;28;20020;-75
2023/09/13 03:06:41;;;;;;;47.20;29.35;;;18.90;99.90;;;;;;5084765;28;20035;-76
2023/09/13 03:09:07;;;;;;;47.40;29.30;;;18.90;99.90;;;;;;5084858;28;20095;-75
2023/09/13 03:11:35;;;;;;;50.28;30.73;;;18.90;99.90;;;;;;5074111;28;20095;-76
2023/09/13 03:14:01;;;;;;;51.42;31.23;;;18.90;99.90;;;;;;5091083;28;20139;-75
2023/09/13 03:16:27;;;;;;;55.03;33.22;;;18.90;99.90;;;;;;5086325;28;20487;-75
2023/09/13 03:18:54;;;;;;;57.80;33.45;;;18.90;99.90;;;;;;5087261;28;20024;-75
2023/09/13 03:21:20;;;;;;;55.42;33.42;;;18.80;99.90;;;;;;5089781;28;20024;-75
2023/09/13 03:23:48;;;;;;;57.15;34.00;;;18.80;99.90;;;;;;5083530;28;20355;-75
2023/09/13 03:26:16;;;;;;;61.28;36.83;;;18.80;99.90;;;;;;5085760;28;20024;-76
2023/09/13 03:28:44;;;;;;;61.67;37.28;;;18.80;99.90;;;;;;5077831;28;20019;-76
2023/09/13 03:31:11;;;;;;;70.68;39.63;;;18.80;99.90;;;;;;5090344;28;20044;-75
2023/09/13 03:33:39;;;;;;;64.32;36.88;;;18.80;99.90;;;;;;5079382;28;20381;-75
2023/09/13 03:36:10;;;;;;;70.75;37.50;;;18.70;99.90;;;;;;5090176;28;20027;-76
2023/09/13 03:38:40;;;;;;;70.00;38.65;;;18.70;99.90;;;;;;5090341;28;20105;-76
2023/09/13 03:41:07;;;;;;;66.75;38.67;;;18.80;99.90;;;;;;5087641;28;20035;-75
2023/09/13 03:43:32;;;;;;;65.03;39.63;;;18.80;99.90;;;;;;5085363;28;20020;-76
2023/09/13 03:45:59;;;;;;;70.72;39.67;;;18.80;99.90;;;;;;5085027;28;20055;-76
2023/09/13 03:48:25;;;;;;;66.97;39.47;;;18.70;99.90;;;;;;5077037;28;20051;-75
2023/09/13 03:50:51;;;;;;;71.57;39.88;;;18.80;99.90;;;;;;5090601;28;20035;-76
2023/09/13 03:53:17;;;;;;;72.25;40.13;;;18.70;99.90;;;;;;5075013;28;20024;-75
2023/09/13 03:55:43;;;;;;;67.72;39.97;;;18.70;99.90;;;;;;5072065;28;20016;-75
2023/09/13 03:58:09;;;;;;;71.97;39.90;;;18.70;99.90;;;;;;5084929;28;20012;-77
2023/09/13 04:00:38;;;;;;;69.78;39.33;;;18.70;99.90;;;;;;5090366;28;20016;-76
2023/09/13 04:03:04;;;;;;;75.50;41.55;;;18.70;99.90;;;;;;5075861;28;20476;-76
2023/09/13 04:05:30;;;;;;;70.90;38.80;;;18.70;99.90;;;;;;5073260;28;20020;-77
2023/09/13 04:07:57;;;;;;;63.83;36.95;;;18.70;99.90;;;;;;5075472;28;20078;-74
2023/09/13 04:10:23;;;;;;;67.22;36.50;;;18.70;99.90;;;;;;5086079;28;20107;-74
2023/09/13 04:12:49;;;;;;;66.82;35.08;;;18.70;99.90;;;;;;5086077;28;20436;-74
2023/09/13 04:15:15;;;;;;;60.97;34.10;;;18.70;99.90;;;;;;5090152;28;20024;-74
2023/09/13 04:17:41;;;;;;;60.33;32.50;;;18.70;99.90;;;;;;5078180;28;20029;-74
2023/09/13 04:20:09;;;;;;;54.40;30.67;;;18.70;99.90;;;;;;5084346;28;20017;-74
2023/09/13 04:22:34;;;;;;;49.83;29.35;;;18.80;99.90;;;;;;5070741;28;20020;-75
2023/09/13 04:25:00;;;;;;;52.10;28.08;;;18.80;99.90;;;;;;5083299;28;20535;-76
2023/09/13 04:27:26;;;;;;;54.53;28.77;;;18.80;99.90;;;;;;5080629;28;20020;-75
2023/09/13 04:29:54;;;;;;;47.28;28.15;;;18.80;99.90;;;;;;5089860;28;20047;-75
2023/09/13 04:32:20;;;;;;;46.05;27.73;;;18.80;99.90;;;;;;5087872;28;20072;-75
2023/09/13 04:34:46;;;;;;;47.42;26.45;;;18.80;99.90;;;;;;5078985;28;20032;-75
2023/09/13 04:37:12;;;;;;;49.80;27.13;;;18.80;99.90;;;;;;5087640;28;20028;-75
2023/09/13 04:39:38;;;;;;;48.95;27.48;;;18.80;99.90;;;;;;5088069;28;20055;-75
2023/09/13 04:42:05;;;;;;;26.33;11.55;;;18.90;99.90;;;;;;5082210;28;20024;-75
2023/09/13 04:44:31;;;;;;;20.65;7.32;;;18.80;99.90;;;;;;5079500;28;20070;-75
2023/09/13 04:46:57;;;;;;;20.83;5.63;;;18.70;99.90;;;;;;5082964;28;20406;-75
2023/09/13 04:49:24;;;;;;;20.08;4.20;;;18.60;99.90;;;;;;5082859;28;20107;-75
2023/09/13 04:51:50;;;;;;;18.33;4.28;;;18.50;99.90;;;;;;5084651;28;20027;-75
2023/09/13 04:54:15;;;;;;;22.48;3.35;;;18.40;99.90;;;;;;5078490;28;20025;-75
2023/09/13 04:56:41;;;;;;;31.60;4.25;;;18.30;99.90;;;;;;5088840;28;20028;-75
2023/09/13 04:59:06;;;;;;;22.95;3.65;;;18.20;99.90;;;;;;5078775;28;20050;-75
2023/09/13 05:01:32;;;;;;;26.15;3.55;;;18.10;99.90;;;;;;5085727;28;20023;-75
2023/09/13 05:03:58;;;;;;;26.23;3.05;;;17.90;99.90;;;;;;5082259;28;20111;-75
2023/09/13 05:06:24;;;;;;;18.90;2.60;;;17.80;99.90;;;;;;5089371;28;20647;-75
2023/09/13 05:08:52;;;;;;;19.98;2.92;;;17.70;99.90;;;;;;5089425;28;20030;-75
2023/09/13 05:11:19;;;;;;;20.58;3.00;;;17.70;99.90;;;;;;5089472;28;20410;-75
2023/09/13 05:13:47;;;;;;;21.70;3.00;;;17.60;99.90;;;;;;5086512;28;20020;-75
2023/09/13 05:16:20;;;;;;;21.05;2.75;;;17.50;99.90;;;;;;5083258;28;20035;-75
2023/09/13 05:18:46;;;;;;;21.73;2.92;;;17.50;99.90;;;;;;5092532;28;20024;-75
2023/09/13 05:21:12;;;;;;;19.05;3.00;;;17.40;99.90;;;;;;5093210;28;20024;-75
2023/09/13 05:23:38;;;;;;;15.57;2.65;;;17.30;99.90;;;;;;5092208;28;20368;-75
2023/09/13 05:26:03;;;;;;;16.50;2.10;;;17.30;99.90;;;;;;5083131;28;20032;-76
2023/09/13 05:28:33;;;;;;;14.30;1.90;;;17.30;99.90;;;;;;5086667;28;20111;-76
2023/09/13 05:30:59;;;;;;;11.95;1.70;;;17.20;99.90;;;;;;5085056;28;20555;-76
2023/09/13 05:33:25;;;;;;;11.70;2.10;;;17.20;99.90;;;;;;5088275;28;20028;-77
2023/09/13 05:35:51;;;;;;;5.68;1.10;;;17.10;99.90;;;;;;5092292;28;20031;-77
2023/09/13 05:38:17;;;;;;;6.05;1.20;;;17.10;99.90;;;;;;5078828;28;20051;-76
2023/09/13 05:40:43;;;;;;;8.05;1.27;;;17.00;99.90;;;;;;5076818;28;20040;-77
2023/09/13 05:43:08;;;;;;;5.05;1.30;;;17.00;99.90;;;;;;5074954;28;20541;-77
2023/09/13 05:45:34;;;;;;;3.42;1.08;;;16.90;99.90;;;;;;5083750;28;20091;-77
2023/09/13 05:47:59;;;;;;;4.22;1.20;;;16.90;99.90;;;;;;5076093;28;20020;-77
2023/09/13 05:50:26;;;;;;;7.13;1.35;;;16.90;99.90;;;;;;5091690;28;20099;-77
2023/09/13 05:52:51;;;;;;;4.82;1.48;;;16.80;99.90;;;;;;5078045;28;20390;-77
2023/09/13 05:55:17;;;;;;;6.97;1.50;;;16.70;99.90;;;;;;5072061;28;20024;-74
2023/09/13 05:57:43;;;;;;;3.83;1.13;;;16.70;99.90;;;;;;5085563;28;20033;-72
2023/09/13 06:00:09;;;;;;;5.70;1.50;;;16.60;99.90;;;;;;5074286;28;20128;-68
2023/09/13 06:02:35;;;;;;;8.00;1.50;;;16.60;99.90;;;;;;5086716;28;20020;-69
2023/09/13 06:05:03;;;;;;;9.02;1.55;;;16.50;99.90;;;;;;5084836;28;20028;-70
2023/09/13 06:07:28;;;;;;;5.32;1.40;;;16.50;99.90;;;;;;5077994;28;20020;-70
2023/09/13 06:09:54;;;;;;;6.95;1.35;;;16.40;99.90;;;;;;5085973;28;20028;-70
2023/09/13 06:12:20;;;;;;;4.38;1.38;;;16.40;99.90;;;;;;5088089;28;20020;-70
2023/09/13 06:14:46;;;;;;;7.68;1.50;;;16.40;99.90;;;;;;5086377;28;20111;-69
2023/09/13 06:17:12;;;;;;;5.05;1.27;;;16.40;99.90;;;;;;5079996;28;20037;-69
2023/09/13 06:19:38;;;;;;;7.53;1.30;;;16.40;99.90;;;;;;5085416;28;20043;-73
2023/09/13 06:22:04;;;;;;;5.00;1.70;;;16.40;99.90;;;;;;5079025;28;20020;-72
2023/09/13 06:24:29;;;;;;;5.38;1.58;;;16.30;99.90;;;;;;5084858;28;20394;-73
2023/09/13 06:26:55;;;;;;;7.53;1.65;;;16.30;99.90;;;;;;5075569;28;20024;-73
2023/09/13 06:29:21;;;;;;;4.60;1.20;;;16.40;99.90;;;;;;5087581;28;20418;-73
2023/09/13 06:31:48;;;;;;;4.70;1.40;;;16.40;99.90;;;;;;5078803;28;20030;-73
2023/09/13 06:34:14;;;;;;;4.45;1.40;;;16.40;99.90;;;;;;5084780;28;20093;-73
2023/09/13 06:36:40;;;;;;;31.83;3.40;;;16.40;99.90;;;;;;5077082;28;20426;-73
2023/09/13 06:39:05;;;;;;;5.18;1.30;;;16.40;99.90;;;;;;5072326;28;20033;-73
2023/09/13 06:41:31;;;;;;;13.60;2.17;;;16.40;99.90;;;;;;5081974;28;20044;-73
2023/09/13 06:43:59;;;;;;;8.10;1.50;;;16.40;99.90;;;;;;5091265;28;20060;-73
2023/09/13 06:46:24;;;;;;;6.45;1.50;;;16.40;99.90;;;;;;5090615;28;20016;-72
2023/09/13 06:48:50;;;;;;;4.53;1.60;;;16.40;99.90;;;;;;5090114;28;20381;-72
2023/09/13 06:51:16;;;;;;;9.15;1.60;;;16.50;99.90;;;;;;5087838;28;20028;-72
2023/09/13 06:53:41;;;;;;;6.88;1.70;;;16.50;99.90;;;;;;5080610;28;20425;-72
2023/09/13 06:56:08;;;;;;;12.50;1.88;;;16.50;99.90;;;;;;5073083;28;20614;-72
2023/09/13 06:58:34;;;;;;;7.68;1.75;;;16.60;99.90;;;;;;5083721;28;20064;-72
2023/09/13 07:00:59;;;;;;;6.07;1.40;;;16.60;99.90;;;;;;5087566;28;20044;-72
2023/09/13 07:03:25;;;;;;;10.50;1.77;;;16.60;99.90;;;;;;5076284;28;20028;-72
2023/09/13 07:05:51;;;;;;;11.90;2.00;;;16.60;99.90;;;;;;5075188;28;20624;-73
2023/09/13 07:08:16;;;;;;;6.18;1.55;;;16.70;99.90;;;;;;5079442;28;20025;-72
2023/09/13 07:10:42;;;;;;;9.52;2.17;;;16.80;99.90;;;;;;5082768;28;20020;-73
2023/09/13 07:13:08;;;;;;;6.20;1.40;;;16.80;99.90;;;;;;5084821;28;20032;-73
2023/09/13 07:15:34;;;;;;;4.75;1.42;;;16.90;99.90;;;;;;5083287;28;20031;-73
2023/09/13 07:17:59;;;;;;;4.63;1.35;;;17.00;99.90;;;;;;5086997;28;20020;-73
2023/09/13 07:20:25;;;;;;;5.95;1.70;;;17.00;99.90;;;;;;5084744;28;20016;-77
2023/09/13 07:22:51;;;;;;;6.05;1.45;;;17.10;99.90;;;;;;5084206;28;20066;-77
2023/09/13 07:25:16;;;;;;;6.68;1.40;;;17.20;99.90;;;;;;5088618;28;20027;-77
2023/09/13 07:27:42;;;;;;;5.80;1.52;;;17.20;99.90;;;;;;5088745;28;20023;-77
2023/09/13 07:30:10;;;;;;;6.82;1.60;;;17.20;99.90;;;;;;5087046;28;20407;-77
2023/09/13 07:32:37;;;;;;;20.40;2.97;;;17.30;99.90;;;;;;5072811;28;20009;-77
2023/09/13 07:35:03;;;;;;;18.15;2.72;;;17.30;99.90;;;;;;5085150;28;20379;-77
2023/09/13 07:37:31;;;;;;;12.43;2.10;;;17.40;99.90;;;;;;5089027;28;20027;-77
2023/09/13 07:39:57;;;;;;;20.70;3.30;;;17.60;99.90;;;;;;5085552;28;20371;-77
2023/09/13 07:42:23;;;;;;;13.20;2.03;;;17.60;99.90;;;;;;5083788;28;20059;-77
2023/09/13 07:44:49;;;;;;;4.18;1.30;;;17.80;99.90;;;;;;5077046;28;20177;-77
2023/09/13 07:47:14;;;;;;;3.72;1.17;;;17.90;99.90;;;;;;5082374;28;20091;-77
2023/09/13 07:49:40;;;;;;;3.42;1.27;;;18.00;99.90;;;;;;5086207;28;20030;-77
2023/09/13 07:52:06;;;;;;;2.33;1.00;;;18.00;99.90;;;;;;5088177;28;20043;-77
2023/09/13 07:54:31;;;;;;;5.15;1.30;;;18.10;99.90;;;;;;5088881;28;20024;-77
2023/09/13 07:56:57;;;;;;;3.90;1.00;;;18.10;99.90;;;;;;5087695;28;20466;-77
2023/09/13 07:59:23;;;;;;;5.38;1.10;;;18.20;99.90;;;;;;5087500;28;20044;-77
2023/09/13 08:01:48;;;;;;;4.25;1.05;;;18.20;99.90;;;;;;5079433;28;20486;-77
2023/09/13 08:04:14;;;;;;;3.42;0.95;;;18.30;99.90;;;;;;5086049;28;20024;-77
2023/09/13 08:06:42;;;;;;;2.05;0.90;;;18.30;99.90;;;;;;5074460;28;20028;-77
2023/09/13 08:09:09;;;;;;;4.03;0.90;;;18.40;99.90;;;;;;5071207;28;20023;-76
2023/09/13 08:11:34;;;;;;;3.17;0.80;;;18.50;99.90;;;;;;5089926;28;20065;-76
2023/09/13 08:14:00;;;;;;;3.28;1.00;;;18.50;99.90;;;;;;5076807;28;20028;-76
2023/09/13 08:16:26;;;;;;;3.25;1.17;;;18.60;99.90;;;;;;5071887;28;20027;-76
2023/09/13 08:18:51;;;;;;;1.77;1.02;;;18.60;99.90;;;;;;5071509;28;20025;-77
2023/09/13 08:21:17;;;;;;;3.58;1.30;;;18.70;99.90;;;;;;5070786;28;20108;-77
2023/09/13 08:23:43;;;;;;;4.00;1.10;;;18.90;99.90;;;;;;5072244;28;20017;-76
2023/09/13 08:26:08;;;;;;;5.50;1.05;;;19.00;99.90;;;;;;5072995;28;20020;-76
2023/09/13 08:28:34;;;;;;;1.73;0.80;;;19.20;99.90;;;;;;5088777;28;20077;-76
2023/09/13 08:31:01;;;;;;;1.98;0.95;;;19.30;99.90;;;;;;5089761;28;20057;-76
2023/09/13 08:33:26;;;;;;;3.30;0.95;;;19.30;99.90;;;;;;5088735;28;20131;-76
2023/09/13 08:35:52;;;;;;;2.20;1.00;;;19.20;99.90;;;;;;5084473;28;20099;-76
2023/09/13 08:38:18;;;;;;;4.35;1.10;;;19.30;99.90;;;;;;5084367;28;20103;-76
2023/09/13 08:40:45;;;;;;;2.05;0.80;;;19.30;99.90;;;;;;5075252;28;20008;-76
2023/09/13 08:43:12;;;;;;;3.50;0.90;;;19.30;99.90;;;;;;5090194;28;20028;-76
2023/09/13 08:45:38;;;;;;;2.95;1.35;;;19.40;99.90;;;;;;5085269;28;20029;-76
2023/09/13 08:48:09;;;;;;;4.45;1.25;;;19.40;99.90;;;;;;5088842;28;20024;-76
2023/09/13 08:50:36;;;;;;;1.92;0.95;;;19.60;99.90;;;;;;5090112;28;20475;-77
2023/09/13 08:53:03;;;;;;;3.38;1.30;;;19.70;99.90;;;;;;5073502;28;20041;-76
2023/09/13 08:55:31;;;;;;;4.30;1.30;;;19.70;99.90;;;;;;5076143;28;20024;-77
2023/09/13 08:57:57;;;;;;;5.97;1.30;;;19.70;99.90;;;;;;5093527;28;20031;-77
2023/09/13 09:00:27;;;;;;;2.97;1.20;;;19.70;99.90;;;;;;5080482;28;20382;-76
2023/09/13 09:02:56;;;;;;;4.25;1.30;;;19.70;99.90;;;;;;5090268;28;20174;-77
2023/09/13 09:05:25;;;;;;;3.30;1.17;;;19.70;99.90;;;;;;5086025;28;20027;-77
2023/09/13 09:07:52;;;;;;;4.75;1.30;;;19.70;99.90;;;;;;5088119;28;20027;-77
2023/09/13 09:10:18;;;;;;;6.68;1.50;;;19.70;99.90;;;;;;5082840;28;20348;-77
2023/09/13 09:12:48;;;;;;;4.55;1.38;;;19.70;99.90;;;;;;5093460;28;20149;-77
2023/09/13 09:15:16;;;;;;;23.08;2.28;;;19.70;99.90;;;;;;5089777;28;20107;-77
2023/09/13 09:17:44;;;;;;;8.38;1.60;;;19.70;99.90;;;;;;5083992;28;20031;-77
2023/09/13 09:20:10;;;;;;;4.80;1.30;;;19.80;99.90;;;;;;5087779;28;20024;-76
2023/09/13 09:22:37;;;;;;;3.17;1.42;;;19.80;99.90;;;;;;5091057;28;20137;-77
2023/09/13 09:25:09;;;;;;;7.72;1.60;;;19.90;99.90;;;;;;5091935;28;20059;-77
2023/09/13 09:27:37;;;;;;;4.78;1.48;;;19.90;99.90;;;;;;5093148;28;20012;-77
2023/09/13 09:30:03;;;;;;;2.97;1.20;;;20.00;99.90;;;;;;5079625;28;20107;-77
2023/09/13 09:32:30;;;;;;;5.07;1.55;;;20.00;99.90;;;;;;5093172;28;20016;-77
2023/09/13 09:34:58;;;;;;;4.72;1.40;;;20.00;99.90;;;;;;5078499;28;20032;-77
2023/09/13 09:37:31;;;;;;;3.80;1.35;;;20.20;99.90;;;;;;5076492;28;20056;-77
2023/09/13 09:39:57;;;;;;;1.85;1.20;;;20.30;99.90;;;;;;5077629;28;20365;-76
2023/09/13 09:42:23;;;;;;;3.70;1.30;;;20.40;99.90;;;;;;5087506;28;20031;-76
2023/09/13 09:44:48;;;;;;;2.25;1.33;;;20.40;99.90;;;;;;5085290;28;20353;-76
2023/09/13 09:47:15;;;;;;;3.47;1.35;;;20.30;99.90;;;;;;5082083;28;20016;-76
2023/09/13 09:49:44;;;;;;;4.60;1.20;;;20.40;99.90;;;;;;5084362;28;20379;-77
2023/09/13 09:52:10;;;;;;;4.65;1.13;;;20.50;99.90;;;;;;5080385;28;20012;-77
2023/09/13 09:54:37;;;;;;;2.08;1.05;;;20.60;99.90;;;;;;5083569;28;20383;-77
2023/09/13 09:57:04;;;;;;;2.78;1.20;;;20.60;99.90;;;;;;5090138;28;20032;-77
2023/09/13 09:59:30;;;;;;;3.83;1.30;;;20.70;99.90;;;;;;5092845;28;20047;-77
2023/09/13 10:01:57;;;;;;;2.92;1.20;;;20.90;99.90;;;;;;5089520;28;20452;-76
2023/09/13 10:04:23;;;;;;;4.20;1.00;;;21.10;99.90;;;;;;5073917;28;20036;-77
2023/09/13 10:07:03;;;;;;;2.22;1.25;;;21.10;99.90;;;;;;5088366;28;20024;-77
2023/09/13 10:09:41;;;;;;;2.28;1.20;;;21.20;99.90;;;;;;5076373;28;20012;-77
2023/09/13 10:12:09;;;;;;;2.05;1.20;;;21.20;99.90;;;;;;5073474;28;20028;-76
2023/09/13 10:14:35;;;;;;;4.45;1.10;;;21.10;99.90;;;;;;5075782;28;20395;-76
2023/09/13 10:17:03;;;;;;;1.90;0.93;;;21.10;99.90;;;;;;5076833;28;20024;-73
2023/09/13 10:19:30;;;;;;;3.22;0.95;;;21.20;99.90;;;;;;5085900;28;20043;-73
2023/09/13 10:21:57;;;;;;;1.40;0.90;;;21.10;99.90;;;;;;5086980;28;20024;-75
2023/09/13 10:24:24;;;;;;;3.92;1.08;;;21.10;99.90;;;;;;5086654;28;20099;-75
2023/09/13 10:26:54;;;;;;;2.45;1.27;;;21.10;99.90;;;;;;5097301;28;20493;-76
2023/09/13 10:29:44;;;;;;;3.90;1.00;;;21.00;99.90;;;;;;5076044;28;20025;-76
2023/09/13 10:32:14;;;;;;;3.30;1.05;;;21.00;99.90;;;;;;5075952;28;20020;-76
2023/09/13 10:34:48;;;;;;;1.58;0.80;;;21.00;99.90;;;;;;5092491;28;20467;-76
2023/09/13 10:37:39;;;;;;;2.08;1.00;;;20.90;99.90;;;;;;5077265;28;20016;-74
2023/09/13 10:40:22;;;;;;;2.17;1.02;;;20.90;99.90;;;;;;5076905;28;20025;-74
2023/09/13 10:42:49;;;;;;;2.10;0.80;;;20.80;99.90;;;;;;5081402;28;20323;-74
2023/09/13 10:45:18;;;;;;;3.97;1.05;;;20.80;99.90;;;;;;5076940;28;20463;-75
2023/09/13 10:47:46;;;;;;;1.80;0.90;;;20.70;99.90;;;;;;5079648;28;20008;-73
2023/09/13 10:50:14;;;;;;;3.35;1.00;;;20.70;99.90;;;;;;5081180;28;20549;-72
2023/09/13 10:52:41;;;;;;;2.83;0.90;;;20.90;99.90;;;;;;5080084;28;20021;-73
2023/09/13 10:55:08;;;;;;;3.75;0.90;;;21.00;99.90;;;;;;5082299;28;20034;-73
2023/09/13 10:57:34;;;;;;;1.85;0.90;;;20.90;99.90;;;;;;5094899;28;20421;-73
2023/09/13 11:00:05;;;;;;;2.60;0.80;;;20.80;99.90;;;;;;5086474;28;20044;-73
2023/09/13 11:02:33;;;;;;;5.80;1.10;;;20.70;99.90;;;;;;5091261;28;20031;-73
2023/09/13 11:04:59;;;;;;;2.35;1.15;;;20.50;99.90;;;;;;5086613;28;20024;-73
2023/09/13 11:07:25;;;;;;;5.20;1.65;;;20.40;99.90;;;;;;5088549;28;20020;-73
2023/09/13 11:09:51;;;;;;;4.95;1.48;;;20.30;99.90;;;;;;5084019;28;20024;-73
2023/09/13 11:12:16;;;;;;;3.55;1.67;;;20.10;99.90;;;;;;5087379;28;20024;-73
2023/09/13 11:14:50;;;;;;;2.83;1.50;;;20.00;99.90;;;;;;5091002;28;20027;-73
2023/09/13 11:17:39;;;;;;;5.40;2.00;;;19.90;99.90;;;;;;5082630;28;20028;-74
2023/09/13 11:20:24;;;;;;;6.65;2.20;;;19.80;99.90;;;;;;5076211;28;20506;-74
2023/09/13 11:23:00;;;;;;;8.47;2.10;;;19.70;99.90;;;;;;5088199;28;20044;-74
2023/09/13 11:25:31;;;;;;;8.40;2.10;;;19.70;99.90;;;;;;5078607;28;20039;-73
2023/09/13 11:27:57;;;;;;;7.38;2.58;;;19.70;99.90;;;;;;5086295;28;20028;-74
2023/09/13 11:30:46;;;;;;;7.43;2.47;;;19.70;99.90;;;;;;5083480;28;20029;-73
2023/09/13 11:33:12;;;;;;;11.25;2.35;;;19.80;99.90;;;;;;5081652;28;20032;-73
2023/09/13 11:35:38;;;;;;;7.50;2.47;;;19.90;99.90;;;;;;5076370;28;20028;-73
2023/09/13 11:38:04;;;;;;;6.82;2.13;;;20.00;99.90;;;;;;5081512;28;20415;-73
2023/09/13 11:40:30;;;;;;;10.48;2.70;;;20.10;99.90;;;;;;5075887;28;20024;-73
2023/09/13 11:42:57;;;;;;;7.38;2.55;;;20.30;99.90;;;;;;5082017;28;20524;-73
2023/09/13 11:45:28;;;;;;;7.38;2.83;;;20.50;99.90;;;;;;5079858;28;20017;-73
2023/09/13 11:47:55;;;;;;;7.88;2.95;;;20.60;99.90;;;;;;5085293;28;20472;-74
2023/09/13 11:50:20;;;;;;;6.53;2.60;;;20.60;99.90;;;;;;5086842;28;20099;-74
2023/09/13 11:53:09;;;;;;;8.75;2.83;;;20.70;99.90;;;;;;5088938;28;20099;-74
2023/09/13 11:55:42;;;;;;;8.80;2.53;;;20.70;99.90;;;;;;5086907;28;20023;-74
2023/09/13 11:58:15;;;;;;;7.28;2.50;;;20.70;99.90;;;;;;5080797;28;20027;-73
2023/09/13 12:00:41;;;;;;;7.75;3.10;;;20.80;99.90;;;;;;5088513;28;20023;-73
2023/09/13 12:03:07;;;;;;;9.93;2.70;;;20.80;99.90;;;;;;5080239;28;20032;-73
2023/09/13 12:05:33;;;;;;;9.90;2.90;;;20.80;99.90;;;;;;5072299;28;20060;-73
2023/09/13 12:07:59;;;;;;;7.57;2.63;;;20.80;99.90;;;;;;5083830;28;20016;-73
2023/09/13 12:10:43;;;;;;;7.22;2.53;;;20.80;99.90;;;;;;5084784;28;20020;-74
2023/09/13 12:13:09;;;;;;;7.18;2.85;;;20.80;99.90;;;;;;5080520;28;20024;-73
2023/09/13 12:15:34;;;;;;;6.53;2.90;;;20.90;99.90;;;;;;5076833;28;20089;-73
2023/09/13 12:18:04;;;;;;;7.90;3.05;;;20.90;99.90;;;;;;5075601;28;20459;-73
2023/09/13 12:20:33;;;;;;;8.52;3.22;;;20.90;99.90;;;;;;5081122;28;20024;-73
2023/09/13 12:22:58;;;;;;;8.02;2.63;;;21.00;99.90;;;;;;5076954;28;20025;-73
2023/09/13 12:25:26;;;;;;;8.52;3.17;;;21.00;99.90;;;;;;5090336;28;20659;-73
2023/09/13 12:27:51;;;;;;;6.55;2.80;;;21.00;99.90;;;;;;5090316;28;20020;-73
2023/09/13 12:30:17;;;;;;;6.35;3.00;;;21.10;99.90;;;;;;5092489;28;20024;-73
2023/09/13 12:32:47;;;;;;;10.70;3.85;;;21.10;99.90;;;;;;5082733;28;20402;-73
2023/09/13 12:35:13;;;;;;;6.82;3.17;;;21.00;99.90;;;;;;5079025;28;20448;-73
2023/09/13 12:37:39;;;;;;;10.38;3.28;;;20.90;99.90;;;;;;5081009;28;20047;-73
2023/09/13 12:40:12;;;;;;;6.82;2.60;;;21.00;99.90;;;;;;5099285;28;20083;-73